Sandy Hook, Missouri
Current Conditions -  °F | °C
As of 5:54 AM on Friday 24 Oct 2014 (Local Time) from KCOU Reporting Station
Moderate Fog Moderate Fog  
Wind Chill: 53°   Ceiling: 1200
Heat Index: 53°   Visibility: 0.25mi
Dew Point: 53°   Wind: 5mph
Humidity: 100%   Direction: 190°S
Pressure: 30.09"   Gusts: NA
Location:  38.7914°N, 92.4851°W
Report Text: KCOU 241054Z AUTO 19004KT 1/4SM FG VV012 12/12 A3009 RMK AO2 SLP189 T01170117
Loading
Personal Weather Stations






























Interactive Weather Map
Tropical Storm Tracking
New forecast layout! Learn more

10-Day Weather Forecast

Advertisements
Track Severe Weather on mobile